sensor_id;sensor_type;location;lat;lon;timestamp;temperature;humidity
29939;DHT22;16799;50.844;5.304;2023-06-22T00:00:52;23.10;99.90
29939;DHT22;16799;50.844;5.304;2023-06-22T00:03:20;22.90;99.90
29939;DHT22;16799;50.844;5.304;2023-06-22T00:05:47;23.00;99.90
29939;DHT22;16799;50.844;5.304;2023-06-22T00:08:13;22.90;99.90
29939;DHT22;16799;50.844;5.304;2023-06-22T00:10:39;22.90;99.90
29939;DHT22;16799;50.844;5.304;2023-06-22T00:13:07;22.90;99.90
29939;DHT22;16799;50.844;5.304;2023-06-22T00:15:33;22.90;99.90
29939;DHT22;16799;50.844;5.304;2023-06-22T00:17:59;22.90;99.90
29939;DHT22;16799;50.844;5.304;2023-06-22T00:20:25;23.00;99.90
29939;DHT22;16799;50.844;5.304;2023-06-22T00:22:56;22.90;99.90
29939;DHT22;16799;50.844;5.304;2023-06-22T00:25:22;23.00;99.90
29939;DHT22;16799;50.844;5.304;2023-06-22T00:27:48;23.10;99.90
29939;DHT22;16799;50.844;5.304;2023-06-22T00:30:17;23.10;99.90
29939;DHT22;16799;50.844;5.304;2023-06-22T00:32:44;23.10;99.90
29939;DHT22;16799;50.844;5.304;2023-06-22T00:35:10;23.00;99.90
29939;DHT22;16799;50.844;5.304;2023-06-22T00:37:36;23.00;99.90
29939;DHT22;16799;50.844;5.304;2023-06-22T00:40:02;23.00;99.90
29939;DHT22;16799;50.844;5.304;2023-06-22T00:42:30;23.00;99.90
29939;DHT22;16799;50.844;5.304;2023-06-22T00:44:56;23.00;99.90
29939;DHT22;16799;50.844;5.304;2023-06-22T00:47:21;23.10;99.90
29939;DHT22;16799;50.844;5.304;2023-06-22T00:49:49;23.00;99.90
29939;DHT22;16799;50.844;5.304;2023-06-22T00:52:20;23.00;99.90
29939;DHT22;16799;50.844;5.304;2023-06-22T00:54:51;23.00;99.90
29939;DHT22;16799;50.844;5.304;2023-06-22T00:57:17;23.00;99.90
29939;DHT22;16799;50.844;5.304;2023-06-22T00:59:44;23.00;99.90
29939;DHT22;16799;50.844;5.304;2023-06-22T01:02:11;22.90;99.90
29939;DHT22;16799;50.844;5.304;2023-06-22T01:04:38;22.90;99.90
29939;DHT22;16799;50.844;5.304;2023-06-22T01:07:25;22.90;99.90
29939;DHT22;16799;50.844;5.304;2023-06-22T01:10:08;22.80;99.90
29939;DHT22;16799;50.844;5.304;2023-06-22T01:12:44;22.80;99.90
29939;DHT22;16799;50.844;5.304;2023-06-22T01:15:40;22.70;99.90
29939;DHT22;16799;50.844;5.304;2023-06-22T01:18:09;22.70;99.90
29939;DHT22;16799;50.844;5.304;2023-06-22T01:20:37;22.70;99.90
29939;DHT22;16799;50.844;5.304;2023-06-22T01:28:52;22.70;99.90
29939;DHT22;16799;50.844;5.304;2023-06-22T01:31:21;22.70;99.90
29939;DHT22;16799;50.844;5.304;2023-06-22T01:33:54;22.50;99.90
29939;DHT22;16799;50.844;5.304;2023-06-22T01:36:22;22.50;99.90
29939;DHT22;16799;50.844;5.304;2023-06-22T01:38:49;22.50;99.90
29939;DHT22;16799;50.844;5.304;2023-06-22T01:41:20;22.50;99.90
29939;DHT22;16799;50.844;5.304;2023-06-22T01:43:46;22.40;99.90
29939;DHT22;16799;50.844;5.304;2023-06-22T01:46:13;22.40;99.90
29939;DHT22;16799;50.844;5.304;2023-06-22T01:48:40;22.40;99.90
29939;DHT22;16799;50.844;5.304;2023-06-22T01:51:06;22.40;99.90
29939;DHT22;16799;50.844;5.304;2023-06-22T01:53:32;22.30;99.90
29939;DHT22;16799;50.844;5.304;2023-06-22T01:55:57;22.10;99.90
29939;DHT22;16799;50.844;5.304;2023-06-22T01:58:26;22.10;99.90
29939;DHT22;16799;50.844;5.304;2023-06-22T02:01:12;22.00;99.90
29939;DHT22;16799;50.844;5.304;2023-06-22T02:03:46;22.10;99.90
29939;DHT22;16799;50.844;5.304;2023-06-22T02:06:25;21.90;99.90
29939;DHT22;16799;50.844;5.304;2023-06-22T02:08:59;22.00;99.90
29939;DHT22;16799;50.844;5.304;2023-06-22T02:11:26;21.90;99.90
29939;DHT22;16799;50.844;5.304;2023-06-22T02:13:53;21.80;99.90
29939;DHT22;16799;50.844;5.304;2023-06-22T02:16:20;21.80;99.90
29939;DHT22;16799;50.844;5.304;2023-06-22T02:18:50;21.80;99.90
29939;DHT22;16799;50.844;5.304;2023-06-22T02:21:19;21.80;99.90
29939;DHT22;16799;50.844;5.304;2023-06-22T02:23:45;21.70;99.90
29939;DHT22;16799;50.844;5.304;2023-06-22T02:26:12;21.60;99.90
29939;DHT22;16799;50.844;5.304;2023-06-22T02:28:38;21.60;99.90
29939;DHT22;16799;50.844;5.304;2023-06-22T02:31:03;21.50;99.90
29939;DHT22;16799;50.844;5.304;2023-06-22T02:33:29;21.60;99.90
29939;DHT22;16799;50.844;5.304;2023-06-22T02:35:55;21.60;99.90
29939;DHT22;16799;50.844;5.304;2023-06-22T02:38:21;21.60;99.90
29939;DHT22;16799;50.844;5.304;2023-06-22T02:40:47;21.60;99.90
29939;DHT22;16799;50.844;5.304;2023-06-22T02:43:13;21.60;99.90
29939;DHT22;16799;50.844;5.304;2023-06-22T02:45:38;21.60;99.90
29939;DHT22;16799;50.844;5.304;2023-06-22T02:48:05;21.70;99.90
29939;DHT22;16799;50.844;5.304;2023-06-22T02:50:30;21.70;99.90
29939;DHT22;16799;50.844;5.304;2023-06-22T02:52:56;21.70;99.90
29939;DHT22;16799;50.844;5.304;2023-06-22T02:55:21;21.70;99.90
29939;DHT22;16799;50.844;5.304;2023-06-22T02:57:47;21.60;99.90
29939;DHT22;16799;50.844;5.304;2023-06-22T03:00:14;21.60;99.90
29939;DHT22;16799;50.844;5.304;2023-06-22T03:02:47;21.60;99.90
29939;DHT22;16799;50.844;5.304;2023-06-22T03:05:14;21.50;99.90
29939;DHT22;16799;50.844;5.304;2023-06-22T03:07:41;21.50;99.90
29939;DHT22;16799;50.844;5.304;2023-06-22T03:10:11;21.30;99.90
29939;DHT22;16799;50.844;5.304;2023-06-22T03:12:41;21.30;99.90
29939;DHT22;16799;50.844;5.304;2023-06-22T03:15:11;21.40;99.90
29939;DHT22;16799;50.844;5.304;2023-06-22T03:17:38;21.40;99.90
29939;DHT22;16799;50.844;5.304;2023-06-22T03:20:06;21.40;99.90
29939;DHT22;16799;50.844;5.304;2023-06-22T03:22:36;21.40;99.90
29939;DHT22;16799;50.844;5.304;2023-06-22T03:25:02;21.50;99.90
29939;DHT22;16799;50.844;5.304;2023-06-22T03:27:28;21.60;99.90
29939;DHT22;16799;50.844;5.304;2023-06-22T03:29:54;21.60;99.90
29939;DHT22;16799;50.844;5.304;2023-06-22T03:32:19;21.60;99.90
29939;DHT22;16799;50.844;5.304;2023-06-22T03:34:45;21.70;99.90
29939;DHT22;16799;50.844;5.304;2023-06-22T03:37:14;21.70;99.90
29939;DHT22;16799;50.844;5.304;2023-06-22T03:39:41;21.50;99.90
29939;DHT22;16799;50.844;5.304;2023-06-22T03:42:06;21.60;99.90
29939;DHT22;16799;50.844;5.304;2023-06-22T03:44:32;21.40;99.90
29939;DHT22;16799;50.844;5.304;2023-06-22T03:46:58;21.40;99.90
29939;DHT22;16799;50.844;5.304;2023-06-22T03:49:24;21.30;99.90
29939;DHT22;16799;50.844;5.304;2023-06-22T03:51:49;21.30;99.90
29939;DHT22;16799;50.844;5.304;2023-06-22T03:54:15;21.30;99.90
29939;DHT22;16799;50.844;5.304;2023-06-22T03:56:41;21.30;99.90
29939;DHT22;16799;50.844;5.304;2023-06-22T03:59:06;21.30;99.90
29939;DHT22;16799;50.844;5.304;2023-06-22T04:01:32;21.50;99.90
29939;DHT22;16799;50.844;5.304;2023-06-22T04:03:58;21.50;99.90
29939;DHT22;16799;50.844;5.304;2023-06-22T04:06:23;21.70;99.90
29939;DHT22;16799;50.844;5.304;2023-06-22T04:08:49;21.70;99.90
29939;DHT22;16799;50.844;5.304;2023-06-22T04:11:17;21.70;99.90
29939;DHT22;16799;50.844;5.304;2023-06-22T04:13:43;21.60;99.90
29939;DHT22;16799;50.844;5.304;2023-06-22T04:16:09;21.60;99.90
29939;DHT22;16799;50.844;5.304;2023-06-22T04:18:34;21.20;99.90
29939;DHT22;16799;50.844;5.304;2023-06-22T04:21:01;20.70;99.90
29939;DHT22;16799;50.844;5.304;2023-06-22T04:23:26;20.40;99.90
29939;DHT22;16799;50.844;5.304;2023-06-22T04:25:52;20.60;99.90
29939;DHT22;16799;50.844;5.304;2023-06-22T04:28:18;20.90;99.90
29939;DHT22;16799;50.844;5.304;2023-06-22T04:30:43;21.10;99.90
29939;DHT22;16799;50.844;5.304;2023-06-22T04:33:14;21.30;99.90
29939;DHT22;16799;50.844;5.304;2023-06-22T04:35:39;21.50;99.90
29939;DHT22;16799;50.844;5.304;2023-06-22T04:38:08;21.50;99.90
29939;DHT22;16799;50.844;5.304;2023-06-22T04:40:34;21.60;99.90
29939;DHT22;16799;50.844;5.304;2023-06-22T04:42:59;21.60;99.90
29939;DHT22;16799;50.844;5.304;2023-06-22T04:45:28;21.80;99.90
29939;DHT22;16799;50.844;5.304;2023-06-22T04:47:58;21.90;99.90
29939;DHT22;16799;50.844;5.304;2023-06-22T04:50:24;22.00;99.90
29939;DHT22;16799;50.844;5.304;2023-06-22T04:52:50;22.10;99.90
29939;DHT22;16799;50.844;5.304;2023-06-22T04:55:16;22.10;99.90
29939;DHT22;16799;50.844;5.304;2023-06-22T04:57:47;22.10;99.90
29939;DHT22;16799;50.844;5.304;2023-06-22T05:00:20;21.70;99.90
29939;DHT22;16799;50.844;5.304;2023-06-22T05:02:47;21.70;99.90
29939;DHT22;16799;50.844;5.304;2023-06-22T05:05:13;21.90;99.90
29939;DHT22;16799;50.844;5.304;2023-06-22T05:07:46;22.10;99.90
29939;DHT22;16799;50.844;5.304;2023-06-22T05:10:16;22.10;99.90
29939;DHT22;16799;50.844;5.304;2023-06-22T05:12:41;22.20;99.90
29939;DHT22;16799;50.844;5.304;2023-06-22T05:15:08;22.30;99.90
29939;DHT22;16799;50.844;5.304;2023-06-22T05:17:34;22.30;99.90
29939;DHT22;16799;50.844;5.304;2023-06-22T05:20:00;22.30;99.90
29939;DHT22;16799;50.844;5.304;2023-06-22T05:22:26;22.20;99.90
29939;DHT22;16799;50.844;5.304;2023-06-22T05:24:52;22.00;99.90
29939;DHT22;16799;50.844;5.304;2023-06-22T05:27:17;22.00;99.90
29939;DHT22;16799;50.844;5.304;2023-06-22T05:29:43;22.00;99.90
29939;DHT22;16799;50.844;5.304;2023-06-22T05:32:09;22.10;99.90
29939;DHT22;16799;50.844;5.304;2023-06-22T05:34:35;22.30;99.90
29939;DHT22;16799;50.844;5.304;2023-06-22T05:37:01;22.20;99.90
29939;DHT22;16799;50.844;5.304;2023-06-22T05:39:27;22.30;99.90
29939;DHT22;16799;50.844;5.304;2023-06-22T05:41:52;22.30;99.90
29939;DHT22;16799;50.844;5.304;2023-06-22T05:44:18;22.30;99.90
29939;DHT22;16799;50.844;5.304;2023-06-22T05:46:44;22.20;99.90
29939;DHT22;16799;50.844;5.304;2023-06-22T05:49:12;22.30;99.90
29939;DHT22;16799;50.844;5.304;2023-06-22T05:51:38;22.30;99.90
29939;DHT22;16799;50.844;5.304;2023-06-22T05:54:04;22.30;99.90
29939;DHT22;16799;50.844;5.304;2023-06-22T05:56:29;22.30;99.90
29939;DHT22;16799;50.844;5.304;2023-06-22T05:58:55;22.40;99.90
29939;DHT22;16799;50.844;5.304;2023-06-22T06:01:21;22.40;99.90
29939;DHT22;16799;50.844;5.304;2023-06-22T06:03:47;22.50;99.90
29939;DHT22;16799;50.844;5.304;2023-06-22T06:06:14;22.50;99.90
29939;DHT22;16799;50.844;5.304;2023-06-22T06:08:39;22.60;99.90
29939;DHT22;16799;50.844;5.304;2023-06-22T06:11:05;22.80;99.90
29939;DHT22;16799;50.844;5.304;2023-06-22T06:13:31;23.00;99.90
29939;DHT22;16799;50.844;5.304;2023-06-22T06:15:56;23.10;99.90
29939;DHT22;16799;50.844;5.304;2023-06-22T06:18:23;22.80;99.90
29939;DHT22;16799;50.844;5.304;2023-06-22T06:20:48;23.00;99.90
29939;DHT22;16799;50.844;5.304;2023-06-22T06:23:14;23.10;99.90
29939;DHT22;16799;50.844;5.304;2023-06-22T06:25:40;23.20;99.90
29939;DHT22;16799;50.844;5.304;2023-06-22T06:28:05;23.30;99.90
29939;DHT22;16799;50.844;5.304;2023-06-22T06:30:31;23.40;99.90
29939;DHT22;16799;50.844;5.304;2023-06-22T06:32:57;23.50;99.90
29939;DHT22;16799;50.844;5.304;2023-06-22T06:35:23;23.50;99.90
29939;DHT22;16799;50.844;5.304;2023-06-22T06:37:50;23.40;99.90
29939;DHT22;16799;50.844;5.304;2023-06-22T06:40:17;23.30;99.90
29939;DHT22;16799;50.844;5.304;2023-06-22T06:42:44;23.30;99.90
29939;DHT22;16799;50.844;5.304;2023-06-22T06:45:20;23.60;99.90
29939;DHT22;16799;50.844;5.304;2023-06-22T06:47:48;23.70;99.90
29939;DHT22;16799;50.844;5.304;2023-06-22T06:50:14;24.00;99.90
29939;DHT22;16799;50.844;5.304;2023-06-22T06:52:40;24.20;99.90
29939;DHT22;16799;50.844;5.304;2023-06-22T06:55:07;24.30;99.90
29939;DHT22;16799;50.844;5.304;2023-06-22T06:57:36;24.20;99.90
29939;DHT22;16799;50.844;5.304;2023-06-22T07:00:04;24.00;99.90
29939;DHT22;16799;50.844;5.304;2023-06-22T07:02:35;24.00;99.90
29939;DHT22;16799;50.844;5.304;2023-06-22T07:05:01;24.00;99.90
29939;DHT22;16799;50.844;5.304;2023-06-22T07:07:29;23.80;99.90
29939;DHT22;16799;50.844;5.304;2023-06-22T07:09:54;24.00;99.90
29939;DHT22;16799;50.844;5.304;2023-06-22T07:12:20;23.70;99.90
29939;DHT22;16799;50.844;5.304;2023-06-22T07:14:46;23.70;99.90
29939;DHT22;16799;50.844;5.304;2023-06-22T07:17:12;23.70;99.90
29939;DHT22;16799;50.844;5.304;2023-06-22T07:19:37;23.70;99.90
29939;DHT22;16799;50.844;5.304;2023-06-22T07:22:04;23.80;99.90
29939;DHT22;16799;50.844;5.304;2023-06-22T07:24:30;23.90;99.90
29939;DHT22;16799;50.844;5.304;2023-06-22T07:26:55;24.10;99.90
29939;DHT22;16799;50.844;5.304;2023-06-22T07:29:23;24.30;99.90
29939;DHT22;16799;50.844;5.304;2023-06-22T07:31:50;24.40;99.90
29939;DHT22;16799;50.844;5.304;2023-06-22T07:34:17;24.40;99.90
29939;DHT22;16799;50.844;5.304;2023-06-22T07:36:43;24.40;99.90
29939;DHT22;16799;50.844;5.304;2023-06-22T07:39:09;24.40;99.90
29939;DHT22;16799;50.844;5.304;2023-06-22T07:41:35;24.40;99.90
29939;DHT22;16799;50.844;5.304;2023-06-22T07:44:02;24.20;99.90
29939;DHT22;16799;50.844;5.304;2023-06-22T07:46:28;24.40;99.90
29939;DHT22;16799;50.844;5.304;2023-06-22T07:48:56;24.50;99.90
29939;DHT22;16799;50.844;5.304;2023-06-22T07:51:22;24.40;99.90
29939;DHT22;16799;50.844;5.304;2023-06-22T07:53:47;24.60;99.90
29939;DHT22;16799;50.844;5.304;2023-06-22T07:56:13;24.80;99.90
29939;DHT22;16799;50.844;5.304;2023-06-22T07:58:47;25.20;99.90
29939;DHT22;16799;50.844;5.304;2023-06-22T08:01:13;25.70;99.90
29939;DHT22;16799;50.844;5.304;2023-06-22T08:03:39;25.60;99.90
29939;DHT22;16799;50.844;5.304;2023-06-22T08:06:05;25.90;99.90
29939;DHT22;16799;50.844;5.304;2023-06-22T08:08:31;26.10;99.90
29939;DHT22;16799;50.844;5.304;2023-06-22T08:10:57;26.40;99.90
29939;DHT22;16799;50.844;5.304;2023-06-22T08:13:23;26.00;99.90
29939;DHT22;16799;50.844;5.304;2023-06-22T08:15:48;26.50;99.90
29939;DHT22;16799;50.844;5.304;2023-06-22T08:18:15;26.60;99.90
29939;DHT22;16799;50.844;5.304;2023-06-22T08:20:42;26.90;99.90
29939;DHT22;16799;50.844;5.304;2023-06-22T08:23:07;26.80;99.90
29939;DHT22;16799;50.844;5.304;2023-06-22T08:25:36;26.80;99.90
29939;DHT22;16799;50.844;5.304;2023-06-22T08:28:03;26.50;99.90
29939;DHT22;16799;50.844;5.304;2023-06-22T08:30:28;26.50;99.90
29939;DHT22;16799;50.844;5.304;2023-06-22T08:32:54;26.30;99.90
29939;DHT22;16799;50.844;5.304;2023-06-22T08:35:22;26.30;99.90
29939;DHT22;16799;50.844;5.304;2023-06-22T08:37:48;26.70;99.90
29939;DHT22;16799;50.844;5.304;2023-06-22T08:40:18;26.20;99.90
29939;DHT22;16799;50.844;5.304;2023-06-22T08:42:46;26.30;99.90
29939;DHT22;16799;50.844;5.304;2023-06-22T08:45:12;26.10;99.90
29939;DHT22;16799;50.844;5.304;2023-06-22T08:47:38;26.30;99.90
29939;DHT22;16799;50.844;5.304;2023-06-22T08:50:05;26.40;99.90
29939;DHT22;16799;50.844;5.304;2023-06-22T08:52:31;25.80;99.90
29939;DHT22;16799;50.844;5.304;2023-06-22T08:54:56;26.10;99.90
29939;DHT22;16799;50.844;5.304;2023-06-22T08:57:23;26.10;99.90
29939;DHT22;16799;50.844;5.304;2023-06-22T08:59:49;26.10;99.90
29939;DHT22;16799;50.844;5.304;2023-06-22T09:02:17;26.10;99.90
29939;DHT22;16799;50.844;5.304;2023-06-22T09:04:43;26.00;99.90
29939;DHT22;16799;50.844;5.304;2023-06-22T09:07:09;26.00;99.90
29939;DHT22;16799;50.844;5.304;2023-06-22T09:09:34;25.90;99.90
29939;DHT22;16799;50.844;5.304;2023-06-22T09:12:00;25.90;99.90
29939;DHT22;16799;50.844;5.304;2023-06-22T09:14:25;26.10;99.90
29939;DHT22;16799;50.844;5.304;2023-06-22T09:16:51;26.40;99.90
29939;DHT22;16799;50.844;5.304;2023-06-22T09:19:17;26.30;99.90
29939;DHT22;16799;50.844;5.304;2023-06-22T09:21:43;26.50;99.90
29939;DHT22;16799;50.844;5.304;2023-06-22T09:24:08;26.60;99.90
29939;DHT22;16799;50.844;5.304;2023-06-22T09:26:34;26.40;99.90
29939;DHT22;16799;50.844;5.304;2023-06-22T09:28:59;26.30;99.90
29939;DHT22;16799;50.844;5.304;2023-06-22T09:31:25;26.30;99.90
29939;DHT22;16799;50.844;5.304;2023-06-22T09:33:52;26.30;99.90
29939;DHT22;16799;50.844;5.304;2023-06-22T09:36:18;26.10;99.90
29939;DHT22;16799;50.844;5.304;2023-06-22T09:38:44;25.80;99.90
29939;DHT22;16799;50.844;5.304;2023-06-22T09:41:09;25.90;99.90
29939;DHT22;16799;50.844;5.304;2023-06-22T09:43:35;25.90;99.90
29939;DHT22;16799;50.844;5.304;2023-06-22T09:46:01;25.60;99.90
29939;DHT22;16799;50.844;5.304;2023-06-22T09:48:28;25.20;99.90
29939;DHT22;16799;50.844;5.304;2023-06-22T09:50:56;25.30;99.90
29939;DHT22;16799;50.844;5.304;2023-06-22T09:53:21;25.40;99.90
29939;DHT22;16799;50.844;5.304;2023-06-22T09:55:47;25.10;99.90
29939;DHT22;16799;50.844;5.304;2023-06-22T09:58:13;24.90;99.90
29939;DHT22;16799;50.844;5.304;2023-06-22T10:00:38;24.60;99.90
29939;DHT22;16799;50.844;5.304;2023-06-22T10:03:04;24.10;99.90
29939;DHT22;16799;50.844;5.304;2023-06-22T10:05:30;24.00;99.90
29939;DHT22;16799;50.844;5.304;2023-06-22T10:07:55;23.80;99.90
29939;DHT22;16799;50.844;5.304;2023-06-22T10:10:21;23.70;99.90
29939;DHT22;16799;50.844;5.304;2023-06-22T10:12:54;23.60;99.90
29939;DHT22;16799;50.844;5.304;2023-06-22T10:15:20;23.60;99.90
29939;DHT22;16799;50.844;5.304;2023-06-22T10:17:46;22.60;99.90
29939;DHT22;16799;50.844;5.304;2023-06-22T10:20:13;22.20;99.90
29939;DHT22;16799;50.844;5.304;2023-06-22T10:22:43;22.40;99.90
29939;DHT22;16799;50.844;5.304;2023-06-22T10:25:10;22.50;99.90
29939;DHT22;16799;50.844;5.304;2023-06-22T10:27:36;22.70;99.90
29939;DHT22;16799;50.844;5.304;2023-06-22T10:30:06;22.60;99.90
29939;DHT22;16799;50.844;5.304;2023-06-22T10:32:31;22.60;99.90
29939;DHT22;16799;50.844;5.304;2023-06-22T10:34:57;22.60;99.90
29939;DHT22;16799;50.844;5.304;2023-06-22T10:37:23;22.60;99.90
29939;DHT22;16799;50.844;5.304;2023-06-22T10:39:48;22.40;99.90
29939;DHT22;16799;50.844;5.304;2023-06-22T10:42:14;21.90;99.90
29939;DHT22;16799;50.844;5.304;2023-06-22T10:44:40;21.90;99.90
29939;DHT22;16799;50.844;5.304;2023-06-22T10:47:08;22.00;99.90
29939;DHT22;16799;50.844;5.304;2023-06-22T10:49:34;22.30;99.90
29939;DHT22;16799;50.844;5.304;2023-06-22T10:52:00;22.30;99.90
29939;DHT22;16799;50.844;5.304;2023-06-22T10:54:25;22.30;99.90
29939;DHT22;16799;50.844;5.304;2023-06-22T10:56:51;22.30;99.90
29939;DHT22;16799;50.844;5.304;2023-06-22T10:59:16;22.40;99.90
29939;DHT22;16799;50.844;5.304;2023-06-22T11:01:42;22.20;99.90
29939;DHT22;16799;50.844;5.304;2023-06-22T11:04:07;22.30;99.90
29939;DHT22;16799;50.844;5.304;2023-06-22T11:06:33;22.30;99.90
29939;DHT22;16799;50.844;5.304;2023-06-22T11:08:59;22.60;99.90
29939;DHT22;16799;50.844;5.304;2023-06-22T11:11:26;23.00;99.90
29939;DHT22;16799;50.844;5.304;2023-06-22T11:13:52;23.50;99.90
29939;DHT22;16799;50.844;5.304;2023-06-22T11:16:18;24.10;99.90
29939;DHT22;16799;50.844;5.304;2023-06-22T11:18:44;24.50;99.90
29939;DHT22;16799;50.844;5.304;2023-06-22T11:21:09;25.00;99.90
29939;DHT22;16799;50.844;5.304;2023-06-22T11:23:35;25.10;99.90
29939;DHT22;16799;50.844;5.304;2023-06-22T11:26:01;25.10;99.90
29939;DHT22;16799;50.844;5.304;2023-06-22T11:28:27;25.30;99.90
29939;DHT22;16799;50.844;5.304;2023-06-22T11:30:53;25.70;99.90
29939;DHT22;16799;50.844;5.304;2023-06-22T11:33:18;25.80;99.90
29939;DHT22;16799;50.844;5.304;2023-06-22T11:35:44;25.50;99.90
29939;DHT22;16799;50.844;5.304;2023-06-22T11:38:10;25.50;99.90
29939;DHT22;16799;50.844;5.304;2023-06-22T11:40:35;25.30;99.90
29939;DHT22;16799;50.844;5.304;2023-06-22T11:43:01;24.90;99.90
29939;DHT22;16799;50.844;5.304;2023-06-22T11:45:27;24.40;99.90
29939;DHT22;16799;50.844;5.304;2023-06-22T11:47:52;24.10;99.90
29939;DHT22;16799;50.844;5.304;2023-06-22T11:50:18;23.70;99.90
29939;DHT22;16799;50.844;5.304;2023-06-22T11:52:44;23.30;99.90
29939;DHT22;16799;50.844;5.304;2023-06-22T11:55:09;23.20;99.90
29939;DHT22;16799;50.844;5.304;2023-06-22T11:57:39;23.10;99.90
29939;DHT22;16799;50.844;5.304;2023-06-22T12:00:17;22.90;99.90
29939;DHT22;16799;50.844;5.304;2023-06-22T12:02:44;22.60;99.90
29939;DHT22;16799;50.844;5.304;2023-06-22T12:05:10;22.40;99.90
29939;DHT22;16799;50.844;5.304;2023-06-22T12:07:36;22.30;99.90
29939;DHT22;16799;50.844;5.304;2023-06-22T12:10:03;22.40;99.90
29939;DHT22;16799;50.844;5.304;2023-06-22T12:12:29;22.30;99.90
29939;DHT22;16799;50.844;5.304;2023-06-22T12:14:55;22.20;99.90
29939;DHT22;16799;50.844;5.304;2023-06-22T12:17:20;22.40;99.90
29939;DHT22;16799;50.844;5.304;2023-06-22T12:19:46;22.30;99.90
29939;DHT22;16799;50.844;5.304;2023-06-22T12:22:11;22.40;99.90
29939;DHT22;16799;50.844;5.304;2023-06-22T12:24:37;22.40;99.90
29939;DHT22;16799;50.844;5.304;2023-06-22T12:27:03;22.10;99.90
29939;DHT22;16799;50.844;5.304;2023-06-22T12:29:29;21.90;99.90
29939;DHT22;16799;50.844;5.304;2023-06-22T12:31:55;21.60;99.90
29939;DHT22;16799;50.844;5.304;2023-06-22T12:34:20;21.50;99.90
29939;DHT22;16799;50.844;5.304;2023-06-22T12:36:46;21.50;99.90
29939;DHT22;16799;50.844;5.304;2023-06-22T12:39:14;21.50;99.90
29939;DHT22;16799;50.844;5.304;2023-06-22T12:41:40;21.50;99.90
29939;DHT22;16799;50.844;5.304;2023-06-22T12:44:05;21.50;99.90
29939;DHT22;16799;50.844;5.304;2023-06-22T12:46:31;21.40;99.90
29939;DHT22;16799;50.844;5.304;2023-06-22T12:49:03;21.00;99.90
29939;DHT22;16799;50.844;5.304;2023-06-22T12:51:29;21.10;99.90
29939;DHT22;16799;50.844;5.304;2023-06-22T12:53:55;21.10;99.90
29939;DHT22;16799;50.844;5.304;2023-06-22T12:56:21;21.30;99.90
29939;DHT22;16799;50.844;5.304;2023-06-22T12:58:47;21.30;99.90
29939;DHT22;16799;50.844;5.304;2023-06-22T13:01:12;21.20;99.90
29939;DHT22;16799;50.844;5.304;2023-06-22T13:03:38;21.20;99.90
29939;DHT22;16799;50.844;5.304;2023-06-22T13:06:04;21.00;99.90
29939;DHT22;16799;50.844;5.304;2023-06-22T13:08:30;20.80;99.90
29939;DHT22;16799;50.844;5.304;2023-06-22T13:10:56;20.80;99.90
29939;DHT22;16799;50.844;5.304;2023-06-22T13:13:23;20.50;99.90
29939;DHT22;16799;50.844;5.304;2023-06-22T13:15:50;20.60;99.90
29939;DHT22;16799;50.844;5.304;2023-06-22T13:18:16;20.60;99.90
29939;DHT22;16799;50.844;5.304;2023-06-22T13:20:41;20.50;99.90
29939;DHT22;16799;50.844;5.304;2023-06-22T13:23:07;20.40;99.90
29939;DHT22;16799;50.844;5.304;2023-06-22T13:25:33;20.30;99.90
29939;DHT22;16799;50.844;5.304;2023-06-22T13:27:58;20.20;99.90
29939;DHT22;16799;50.844;5.304;2023-06-22T13:30:24;20.30;99.90
29939;DHT22;16799;50.844;5.304;2023-06-22T13:32:50;20.10;99.90
29939;DHT22;16799;50.844;5.304;2023-06-22T13:35:15;20.00;99.90
29939;DHT22;16799;50.844;5.304;2023-06-22T13:37:41;20.10;99.90
29939;DHT22;16799;50.844;5.304;2023-06-22T13:40:07;20.10;99.90
29939;DHT22;16799;50.844;5.304;2023-06-22T13:42:33;20.10;99.90
29939;DHT22;16799;50.844;5.304;2023-06-22T13:44:59;20.20;99.90
29939;DHT22;16799;50.844;5.304;2023-06-22T13:47:25;20.10;99.90
29939;DHT22;16799;50.844;5.304;2023-06-22T13:49:50;20.10;99.90
29939;DHT22;16799;50.844;5.304;2023-06-22T13:52:16;20.10;99.90
29939;DHT22;16799;50.844;5.304;2023-06-22T13:54:42;20.00;99.90
29939;DHT22;16799;50.844;5.304;2023-06-22T13:57:07;19.90;99.90
29939;DHT22;16799;50.844;5.304;2023-06-22T13:59:33;19.80;99.90
29939;DHT22;16799;50.844;5.304;2023-06-22T14:01:59;19.80;99.90
29939;DHT22;16799;50.844;5.304;2023-06-22T14:04:24;19.70;99.90
29939;DHT22;16799;50.844;5.304;2023-06-22T14:06:50;19.60;99.90
29939;DHT22;16799;50.844;5.304;2023-06-22T14:09:16;19.70;99.90
29939;DHT22;16799;50.844;5.304;2023-06-22T14:11:41;19.60;99.90
29939;DHT22;16799;50.844;5.304;2023-06-22T14:14:07;19.70;99.90
29939;DHT22;16799;50.844;5.304;2023-06-22T14:16:32;19.60;99.90
29939;DHT22;16799;50.844;5.304;2023-06-22T14:18:58;19.60;99.90
29939;DHT22;16799;50.844;5.304;2023-06-22T14:21:25;19.70;99.90
29939;DHT22;16799;50.844;5.304;2023-06-22T14:23:51;19.70;99.90
29939;DHT22;16799;50.844;5.304;2023-06-22T14:26:16;19.60;99.90
29939;DHT22;16799;50.844;5.304;2023-06-22T14:28:45;19.60;99.90
29939;DHT22;16799;50.844;5.304;2023-06-22T14:31:17;19.50;99.90
29939;DHT22;16799;50.844;5.304;2023-06-22T14:33:47;19.50;99.90
29939;DHT22;16799;50.844;5.304;2023-06-22T14:36:14;19.40;99.90
29939;DHT22;16799;50.844;5.304;2023-06-22T14:38:40;19.40;99.90
29939;DHT22;16799;50.844;5.304;2023-06-22T14:41:06;19.30;99.90
29939;DHT22;16799;50.844;5.304;2023-06-22T14:43:31;19.30;99.90
29939;DHT22;16799;50.844;5.304;2023-06-22T14:45:57;19.30;99.90
29939;DHT22;16799;50.844;5.304;2023-06-22T14:48:23;19.20;99.90
29939;DHT22;16799;50.844;5.304;2023-06-22T14:50:48;19.20;99.90
29939;DHT22;16799;50.844;5.304;2023-06-22T14:53:14;19.20;99.90
29939;DHT22;16799;50.844;5.304;2023-06-22T14:55:40;19.00;99.90
29939;DHT22;16799;50.844;5.304;2023-06-22T14:58:06;19.00;99.90
29939;DHT22;16799;50.844;5.304;2023-06-22T15:00:32;19.00;99.90
29939;DHT22;16799;50.844;5.304;2023-06-22T15:02:58;18.90;99.90
29939;DHT22;16799;50.844;5.304;2023-06-22T15:05:25;18.80;99.90
29939;DHT22;16799;50.844;5.304;2023-06-22T15:07:50;18.80;99.90
29939;DHT22;16799;50.844;5.304;2023-06-22T15:10:16;18.90;99.90
29939;DHT22;16799;50.844;5.304;2023-06-22T15:12:42;18.90;99.90
29939;DHT22;16799;50.844;5.304;2023-06-22T15:15:08;18.90;99.90
29939;DHT22;16799;50.844;5.304;2023-06-22T15:17:33;18.90;99.90
29939;DHT22;16799;50.844;5.304;2023-06-22T15:19:59;18.90;99.90
29939;DHT22;16799;50.844;5.304;2023-06-22T15:22:25;18.70;99.90
29939;DHT22;16799;50.844;5.304;2023-06-22T15:24:51;18.70;99.90
29939;DHT22;16799;50.844;5.304;2023-06-22T15:27:19;18.80;99.90
29939;DHT22;16799;50.844;5.304;2023-06-22T15:29:45;18.80;99.90
29939;DHT22;16799;50.844;5.304;2023-06-22T15:32:11;18.80;99.90